createdAt,value
2019-05-26T00:00:01.004Z,69.43
2019-05-26T00:02:28.714Z,69.35
2019-05-26T00:04:56.569Z,69.25
2019-05-26T00:07:30.594Z,69.40
2019-05-26T00:09:53.836Z,69.30
2019-05-26T00:12:21.488Z,68.88
2019-05-26T00:14:49.145Z,69.28
2019-05-26T00:17:16.857Z,69.15
2019-05-26T00:19:44.868Z,69.18
2019-05-26T00:22:12.734Z,69.13
2019-05-26T00:24:40.378Z,68.69
2019-05-26T00:27:08.038Z,68.92
2019-05-26T00:29:35.735Z,69.34
2019-05-26T00:32:03.434Z,69.64
2019-05-26T00:34:31.324Z,68.93
2019-05-26T00:36:58.987Z,69.40
2019-05-26T00:39:26.769Z,68.96
2019-05-26T00:41:54.453Z,68.86
2019-05-26T00:44:22.104Z,70.41
2019-05-26T00:46:49.759Z,69.95
2019-05-26T00:49:17.450Z,69.73
2019-05-26T00:51:45.236Z,69.34
2019-05-26T00:54:13.331Z,69.62
2019-05-26T00:56:41.144Z,70.00
2019-05-26T00:59:08.787Z,70.64
2019-05-26T01:01:36.615Z,70.71
2019-05-26T01:04:04.272Z,68.58
2019-05-26T01:06:31.931Z,67.91
2019-05-26T01:08:59.579Z,68.56
2019-05-26T01:11:27.235Z,68.72
2019-05-26T01:13:55.122Z,69.04
2019-05-26T01:16:22.796Z,68.74
2019-05-26T01:18:50.687Z,68.94
2019-05-26T01:21:18.484Z,68.43
2019-05-26T01:23:46.129Z,69.12
2019-05-26T01:26:13.776Z,69.54
2019-05-26T01:28:41.429Z,69.86
2019-05-26T01:31:09.094Z,69.76
2019-05-26T01:33:36.886Z,70.61
2019-05-26T01:36:04.674Z,70.82
2019-05-26T01:38:32.415Z,70.89
2019-05-26T01:41:00.068Z,71.00
2019-05-26T01:43:27.733Z,71.08
2019-05-26T01:45:55.610Z,73.31
2019-05-26T01:48:23.276Z,73.09
2019-05-26T01:50:51.209Z,72.08
2019-05-26T01:53:19.067Z,72.13
2019-05-26T01:55:46.721Z,71.64
2019-05-26T01:58:14.371Z,70.92
2019-05-26T02:00:42.019Z,70.85
2019-05-26T02:03:09.686Z,70.53
2019-05-26T02:05:37.643Z,70.66
2019-05-26T02:08:05.448Z,70.33
2019-05-26T02:10:33.212Z,69.90
2019-05-26T02:13:00.878Z,69.95
2019-05-26T02:15:28.519Z,69.80
2019-05-26T02:17:56.180Z,70.28
2019-05-26T02:20:23.978Z,71.19
2019-05-26T02:22:51.883Z,71.97
2019-05-26T02:25:19.746Z,73.57
2019-05-26T02:27:47.404Z,73.88
2019-05-26T02:30:15.060Z,72.88
2019-05-26T02:32:42.729Z,73.13
2019-05-26T02:35:10.404Z,74.07
2019-05-26T02:37:38.374Z,74.06
2019-05-26T02:40:06.309Z,74.23
2019-05-26T02:42:34.078Z,74.25
2019-05-26T02:45:01.735Z,73.80
2019-05-26T02:47:29.404Z,73.55
2019-05-26T02:49:57.053Z,74.37
2019-05-26T02:52:24.704Z,74.88
2019-05-26T02:54:52.506Z,75.30
2019-05-26T02:57:20.336Z,75.80
2019-05-26T02:59:48.052Z,75.45
2019-05-26T03:02:15.708Z,75.63
2019-05-26T03:04:43.359Z,76.27
2019-05-26T03:07:11.012Z,76.01
2019-05-26T03:09:38.694Z,76.36
2019-05-26T03:12:06.353Z,75.77
2019-05-26T03:14:34.190Z,75.87
2019-05-26T03:17:01.957Z,75.90
2019-05-26T03:19:29.644Z,76.20
2019-05-26T03:21:57.355Z,76.21
2019-05-26T03:24:25.093Z,77.11
2019-05-26T03:26:52.857Z,77.26
2019-05-26T03:29:20.781Z,77.06
2019-05-26T03:31:48.659Z,76.20
2019-05-26T03:34:16.495Z,75.63
2019-05-26T03:36:44.146Z,75.97
2019-05-26T03:39:11.895Z,76.19
2019-05-26T03:41:39.563Z,75.70
2019-05-26T03:44:07.229Z,75.50
2019-05-26T03:46:34.987Z,75.67
2019-05-26T03:49:02.731Z,75.59
2019-05-26T03:51:30.565Z,75.76
2019-05-26T03:53:58.527Z,75.12
2019-05-26T03:56:26.380Z,75.02
2019-05-26T03:58:54.040Z,74.43
2019-05-26T04:01:21.724Z,74.54
2019-05-26T04:03:49.474Z,72.81
2019-05-26T04:06:17.358Z,72.81
2019-05-26T04:08:45.266Z,71.96
2019-05-26T04:11:13.135Z,71.96
2019-05-26T04:13:40.787Z,72.04
2019-05-26T04:16:08.453Z,71.62
2019-05-26T04:18:36.117Z,72.35
2019-05-26T04:21:03.781Z,72.67
2019-05-26T04:23:31.457Z,71.84
2019-05-26T04:25:59.362Z,70.08
2019-05-26T04:28:27.355Z,70.08
2019-05-26T04:30:55.044Z,68.64
2019-05-26T04:33:22.724Z,68.29
2019-05-26T04:35:50.371Z,68.58
2019-05-26T04:38:18.032Z,67.58
2019-05-26T04:40:45.775Z,65.39
2019-05-26T04:43:15.149Z,65.03
2019-05-26T04:45:43.097Z,62.16
2019-05-26T04:48:10.744Z,62.22
2019-05-26T04:50:38.473Z,60.79
2019-05-26T04:53:07.405Z,58.85
2019-05-26T04:55:35.548Z,57.96
2019-05-26T04:58:03.196Z,56.83
2019-05-26T05:00:30.852Z,56.18
2019-05-26T05:02:58.508Z,55.39
2019-05-26T05:05:26.195Z,55.05
2019-05-26T05:07:54.002Z,53.88
2019-05-26T05:10:21.938Z,52.49
2019-05-26T05:12:49.706Z,53.63
2019-05-26T05:15:17.359Z,52.65
2019-05-26T05:17:45.003Z,54.80
2019-05-26T05:20:12.661Z,52.94
2019-05-26T05:22:40.327Z,52.78
2019-05-26T05:25:14.266Z,52.66
2019-05-26T05:27:37.410Z,51.16
2019-05-26T05:30:05.311Z,51.22
2019-05-26T05:32:33.365Z,53.00
2019-05-26T05:35:01.034Z,51.19
2019-05-26T05:37:28.713Z,50.07
2019-05-26T05:39:56.362Z,50.04
2019-05-26T05:42:24.031Z,48.89
2019-05-26T05:44:51.827Z,48.55
2019-05-26T05:47:19.825Z,47.98
2019-05-26T05:49:47.757Z,48.17
2019-05-26T05:52:15.402Z,49.30
2019-05-26T05:54:43.040Z,47.99
2019-05-26T05:57:10.712Z,46.14
2019-05-26T05:59:38.433Z,47.51
2019-05-26T06:02:06.173Z,48.35
2019-05-26T06:04:34.151Z,47.99
2019-05-26T06:07:01.853Z,47.92
2019-05-26T06:09:29.539Z,46.55
2019-05-26T06:11:57.571Z,45.03
2019-05-26T06:14:25.564Z,47.41
2019-05-26T06:16:53.220Z,46.30
2019-05-26T06:19:20.869Z,46.13
2019-05-26T06:21:48.604Z,46.61
2019-05-26T06:24:16.346Z,46.49
2019-05-26T06:26:44.006Z,46.73
2019-05-26T06:29:11.663Z,46.04
2019-05-26T06:31:39.419Z,47.47
2019-05-26T06:34:07.214Z,44.71
2019-05-26T06:36:34.892Z,45.62
2019-05-26T06:39:02.799Z,44.09
2019-05-26T06:41:33.908Z,43.90
2019-05-26T06:43:59.934Z,44.70
2019-05-26T06:46:27.602Z,45.06
2019-05-26T06:48:55.312Z,45.18
2019-05-26T06:51:22.973Z,47.95
2019-05-26T06:53:50.624Z,44.51
2019-05-26T06:56:18.387Z,43.08
2019-05-26T06:58:46.048Z,44.08
2019-05-26T07:01:13.704Z,41.81
2019-05-26T07:03:41.348Z,44.96
2019-05-26T07:06:09.119Z,43.27
2019-05-26T07:08:36.858Z,45.07
2019-05-26T07:11:04.601Z,45.82
2019-05-26T07:13:32.273Z,41.68
2019-05-26T07:15:59.919Z,41.42
2019-05-26T07:18:27.576Z,42.86
2019-05-26T07:20:55.231Z,42.09
2019-05-26T07:23:23.146Z,41.36
2019-05-26T07:25:50.812Z,38.74
2019-05-26T07:28:18.491Z,40.89
2019-05-26T07:30:46.146Z,42.91
2019-05-26T07:33:13.801Z,42.86
2019-05-26T07:35:41.568Z,40.95
2019-05-26T07:38:09.219Z,41.96
2019-05-26T07:40:36.882Z,42.31
2019-05-26T07:43:04.527Z,42.46
2019-05-26T07:45:32.184Z,44.46
2019-05-26T07:48:00.126Z,43.32
2019-05-26T07:50:27.776Z,41.65
2019-05-26T07:52:55.522Z,42.73
2019-05-26T07:55:23.188Z,42.77
2019-05-26T07:57:50.862Z,43.57
2019-05-26T08:00:18.513Z,43.56
2019-05-26T08:02:46.261Z,44.17
2019-05-26T08:05:14.117Z,43.72
2019-05-26T08:07:41.884Z,44.48
2019-05-26T08:10:09.798Z,42.64
2019-05-26T08:12:37.502Z,42.89
2019-05-26T08:15:05.135Z,40.42
2019-05-26T08:17:32.859Z,42.70
2019-05-26T08:20:00.509Z,40.90
2019-05-26T08:22:40.684Z,41.49
2019-05-26T08:25:08.405Z,40.43
2019-05-26T08:27:36.267Z,39.65
2019-05-26T08:30:03.924Z,40.40
2019-05-26T08:32:32.004Z,39.62
2019-05-26T08:34:59.748Z,41.14
2019-05-26T08:37:27.396Z,40.59
2019-05-26T08:39:57.312Z,42.07
2019-05-26T08:42:28.963Z,39.59
2019-05-26T08:44:54.395Z,39.61
2019-05-26T08:47:22.103Z,41.29
2019-05-26T08:49:50.032Z,40.69
2019-05-26T08:52:17.780Z,42.08
2019-05-26T08:54:45.716Z,38.74
2019-05-26T08:57:13.439Z,39.35
2019-05-26T08:59:41.253Z,39.69
2019-05-26T09:02:08.914Z,38.58
2019-05-26T09:04:36.580Z,40.67
2019-05-26T09:07:04.225Z,40.87
2019-05-26T09:09:31.875Z,41.19
2019-05-26T09:11:59.545Z,40.75
2019-05-26T09:14:27.215Z,42.34
2019-05-26T09:16:54.878Z,38.52
2019-05-26T09:19:22.627Z,41.07
2019-05-26T09:21:50.648Z,38.39
2019-05-26T09:24:18.308Z,39.82
2019-05-26T09:26:45.975Z,40.32
2019-05-26T09:29:13.661Z,37.61
2019-05-26T09:31:41.688Z,38.72
2019-05-26T09:34:09.556Z,38.07
2019-05-26T09:36:37.215Z,39.59
2019-05-26T09:39:05.611Z,37.76
2019-05-26T09:41:33.276Z,38.16
2019-05-26T09:44:01.480Z,37.30
2019-05-26T09:46:29.461Z,37.39
2019-05-26T09:49:00.649Z,37.34
2019-05-26T09:51:26.495Z,37.44
2019-05-26T09:54:01.530Z,39.72
2019-05-26T09:56:23.748Z,36.96
2019-05-26T09:58:51.408Z,38.04
2019-05-26T10:01:19.060Z,37.75
2019-05-26T10:03:46.741Z,36.34
2019-05-26T10:06:14.412Z,40.80
2019-05-26T10:08:42.073Z,36.61
2019-05-26T10:11:09.737Z,37.86
2019-05-26T10:13:37.502Z,35.94
2019-05-26T10:16:05.180Z,35.54
2019-05-26T10:18:32.912Z,37.62
2019-05-26T10:21:00.557Z,34.63
2019-05-26T10:23:28.211Z,36.27
2019-05-26T10:25:56.096Z,36.58
2019-05-26T10:28:23.751Z,37.99
2019-05-26T10:30:51.515Z,36.43
2019-05-26T10:33:19.356Z,36.38
2019-05-26T10:35:47.014Z,35.67
2019-05-26T10:38:14.750Z,35.94
2019-05-26T10:40:42.420Z,38.83
2019-05-26T10:43:10.071Z,37.49
2019-05-26T10:45:37.996Z,37.66
2019-05-26T10:48:05.677Z,35.15
2019-05-26T10:50:33.449Z,35.28
2019-05-26T10:53:01.517Z,36.13
2019-05-26T10:55:29.192Z,38.17
2019-05-26T10:57:56.858Z,36.05
2019-05-26T11:00:24.646Z,36.05
2019-05-26T11:02:52.347Z,35.12
2019-05-26T11:05:20.171Z,35.72
2019-05-26T11:07:47.928Z,37.19
2019-05-26T11:10:15.599Z,37.33
2019-05-26T11:12:43.332Z,36.34
2019-05-26T11:15:11.046Z,33.47
2019-05-26T11:17:38.730Z,36.10
2019-05-26T11:20:06.387Z,34.93
2019-05-26T11:22:34.076Z,35.53
2019-05-26T11:25:01.743Z,36.03
2019-05-26T11:27:29.406Z,36.50
2019-05-26T11:29:57.084Z,36.82
2019-05-26T11:32:24.832Z,36.60
2019-05-26T11:35:01.246Z,36.88
2019-05-26T11:37:21.852Z,37.16
2019-05-26T11:39:49.571Z,34.95
2019-05-26T11:42:17.232Z,36.00
2019-05-26T11:44:44.889Z,35.78
2019-05-26T11:47:12.557Z,35.38
2019-05-26T11:49:40.216Z,36.36
2019-05-26T11:52:07.932Z,36.50
2019-05-26T11:54:35.631Z,36.79
2019-05-26T11:57:03.388Z,35.94
2019-05-26T11:59:31.060Z,36.91
2019-05-26T12:01:58.742Z,35.60
2019-05-26T12:04:26.407Z,35.44
2019-05-26T12:06:54.070Z,37.45
2019-05-26T12:09:21.745Z,35.27
2019-05-26T12:11:49.404Z,37.01
2019-05-26T12:14:33.053Z,35.11
2019-05-26T12:16:46.511Z,36.21
2019-05-26T12:19:14.347Z,35.24
2019-05-26T12:21:42.136Z,36.19
2019-05-26T12:24:09.792Z,35.10
2019-05-26T12:26:37.475Z,35.99
2019-05-26T12:29:05.138Z,36.89
2019-05-26T12:31:32.814Z,35.93
2019-05-26T12:34:00.477Z,37.29
2019-05-26T12:36:28.137Z,36.60
2019-05-26T12:38:55.838Z,36.75
2019-05-26T12:41:23.684Z,35.13
2019-05-26T12:43:51.570Z,35.41
2019-05-26T12:46:19.319Z,35.43
2019-05-26T12:48:46.983Z,35.43
2019-05-26T12:51:14.648Z,35.69
2019-05-26T12:53:42.323Z,35.35
2019-05-26T12:56:09.995Z,35.35
2019-05-26T12:58:37.724Z,36.83
2019-05-26T13:01:05.529Z,38.23
2019-05-26T13:03:33.224Z,36.09
2019-05-26T13:06:00.898Z,36.22
2019-05-26T13:08:28.552Z,37.16
2019-05-26T13:10:56.208Z,37.67
2019-05-26T13:13:23.902Z,37.94
2019-05-26T13:15:51.596Z,36.26
2019-05-26T13:18:19.500Z,36.44
2019-05-26T13:20:47.364Z,35.47
2019-05-26T13:23:15.040Z,36.46
2019-05-26T13:25:42.693Z,35.68
2019-05-26T13:28:10.384Z,36.14
2019-05-26T13:30:38.100Z,35.31
2019-05-26T13:33:05.940Z,37.03
2019-05-26T13:35:33.872Z,35.56
2019-05-26T13:38:01.540Z,36.30
2019-05-26T13:40:29.785Z,36.30
2019-05-26T13:42:57.563Z,35.28
2019-05-26T13:45:25.220Z,34.38
2019-05-26T13:47:52.925Z,33.60
2019-05-26T13:50:20.800Z,35.27
2019-05-26T13:52:48.451Z,35.43
2019-05-26T13:55:16.117Z,36.10
2019-05-26T13:57:43.763Z,37.05
2019-05-26T14:00:11.669Z,36.71
2019-05-26T14:02:39.525Z,36.62
2019-05-26T14:05:07.464Z,35.97
2019-05-26T14:07:35.135Z,36.15
2019-05-26T14:10:02.779Z,36.29
2019-05-26T14:12:30.443Z,36.40
2019-05-26T14:14:58.104Z,36.30
2019-05-26T14:17:25.936Z,36.40
2019-05-26T14:19:53.617Z,36.29
2019-05-26T14:22:21.279Z,38.03
2019-05-26T14:24:53.887Z,36.65
2019-05-26T14:27:18.437Z,36.61
2019-05-26T14:29:46.089Z,36.26
2019-05-26T14:32:13.748Z,36.21
2019-05-26T14:34:41.407Z,36.75
2019-05-26T14:37:09.080Z,36.94
2019-05-26T14:39:36.735Z,36.78
2019-05-26T14:42:04.526Z,36.94
2019-05-26T14:44:32.384Z,36.86
2019-05-26T14:47:00.063Z,36.87
2019-05-26T14:49:27.746Z,35.88
2019-05-26T14:51:55.467Z,37.81
2019-05-26T14:54:23.140Z,37.43
2019-05-26T14:56:50.805Z,36.50
2019-05-26T14:59:18.694Z,36.61
2019-05-26T15:01:46.481Z,37.55
2019-05-26T15:04:14.149Z,37.66
2019-05-26T15:06:41.815Z,37.83
2019-05-26T15:09:24.260Z,37.59
2019-05-26T15:11:39.034Z,37.73
2019-05-26T15:14:06.826Z,37.61
2019-05-26T15:16:34.568Z,37.47
2019-05-26T15:19:02.264Z,36.87
2019-05-26T15:21:30.002Z,36.96
2019-05-26T15:23:57.704Z,36.14
2019-05-26T15:26:25.488Z,37.34
2019-05-26T15:28:53.854Z,35.79
2019-05-26T15:31:21.581Z,37.37
2019-05-26T15:33:49.395Z,37.70
2019-05-26T15:36:17.062Z,37.26
2019-05-26T15:38:44.733Z,37.26
2019-05-26T15:41:12.404Z,36.72
2019-05-26T15:43:40.073Z,35.86
2019-05-26T15:46:07.881Z,35.88
2019-05-26T15:48:35.564Z,36.02
2019-05-26T15:51:03.350Z,36.66
2019-05-26T15:53:31.203Z,37.58
2019-05-26T15:55:59.051Z,36.53
2019-05-26T15:58:26.757Z,37.91
2019-05-26T16:00:54.431Z,38.22
2019-05-26T16:03:22.098Z,37.34
2019-05-26T16:05:49.765Z,36.32
2019-05-26T16:08:17.477Z,37.25
2019-05-26T16:10:45.135Z,38.51
2019-05-26T16:13:12.797Z,37.25
2019-05-26T16:15:40.445Z,37.34
2019-05-26T16:18:08.117Z,38.33
2019-05-26T16:20:35.955Z,38.98
2019-05-26T16:23:03.616Z,38.10
2019-05-26T16:25:31.273Z,38.07
2019-05-26T16:27:58.928Z,37.94
2019-05-26T16:30:26.597Z,37.90
2019-05-26T16:32:54.248Z,36.66
2019-05-26T16:35:21.914Z,37.80
2019-05-26T16:37:49.571Z,37.36
2019-05-26T16:40:17.282Z,38.04
2019-05-26T16:42:44.942Z,36.78
2019-05-26T16:45:12.659Z,36.78
2019-05-26T16:47:40.385Z,36.86
2019-05-26T16:50:08.054Z,37.16
2019-05-26T16:52:35.721Z,37.98
2019-05-26T16:55:03.407Z,37.26
2019-05-26T16:57:31.047Z,37.47
2019-05-26T16:59:58.707Z,37.71
2019-05-26T17:02:26.421Z,38.26
2019-05-26T17:04:54.080Z,37.74
2019-05-26T17:07:21.732Z,37.79
2019-05-26T17:09:49.437Z,37.73
2019-05-26T17:12:17.136Z,37.59
2019-05-26T17:14:44.905Z,38.82
2019-05-26T17:17:15.183Z,38.64
2019-05-26T17:19:41.953Z,39.40
2019-05-26T17:22:09.692Z,38.87
2019-05-26T17:24:37.408Z,38.24
2019-05-26T17:27:05.072Z,38.04
2019-05-26T17:29:32.812Z,36.77
2019-05-26T17:32:00.477Z,37.14
2019-05-26T17:34:28.150Z,38.05
2019-05-26T17:36:55.796Z,38.32
2019-05-26T17:39:23.544Z,38.12
2019-05-26T17:41:51.188Z,38.32
2019-05-26T17:44:18.856Z,38.85
2019-05-26T17:46:46.525Z,38.34
2019-05-26T17:49:14.199Z,38.37
2019-05-26T17:51:41.897Z,38.24
2019-05-26T17:54:09.601Z,39.52
2019-05-26T17:56:37.275Z,39.70
2019-05-26T17:59:04.952Z,40.43
2019-05-26T18:01:32.685Z,39.04
2019-05-26T18:04:00.495Z,39.75
2019-05-26T18:06:28.220Z,40.77
2019-05-26T18:08:55.880Z,40.38
2019-05-26T18:11:23.547Z,40.04
2019-05-26T18:13:51.251Z,41.00
2019-05-26T18:16:19.147Z,41.37
2019-05-26T18:18:46.904Z,41.69
2019-05-26T18:21:14.558Z,40.83
2019-05-26T18:23:42.216Z,42.87
2019-05-26T18:26:09.891Z,42.97
2019-05-26T18:28:37.549Z,43.89
2019-05-26T18:31:05.211Z,44.04
2019-05-26T18:33:32.897Z,42.89
2019-05-26T18:36:00.584Z,43.64
2019-05-26T18:38:28.243Z,44.17
2019-05-26T18:40:56.101Z,45.05
2019-05-26T18:43:23.807Z,46.05
2019-05-26T18:45:51.536Z,46.59
2019-05-26T18:48:19.271Z,46.90
2019-05-26T18:50:47.033Z,46.53
2019-05-26T18:53:14.722Z,46.54
2019-05-26T18:55:42.374Z,46.58
2019-05-26T18:58:10.028Z,47.81
2019-05-26T19:00:37.673Z,47.06
2019-05-26T19:03:05.333Z,47.97
2019-05-26T19:05:38.072Z,47.83
2019-05-26T19:08:02.416Z,48.09
2019-05-26T19:10:30.067Z,49.66
2019-05-26T19:12:57.711Z,48.73
2019-05-26T19:15:25.740Z,50.22
2019-05-26T19:17:53.581Z,51.68
2019-05-26T19:20:21.241Z,52.52
2019-05-26T19:22:48.896Z,51.64
2019-05-26T19:25:16.572Z,52.53
2019-05-26T19:27:44.292Z,53.53
2019-05-26T19:30:11.944Z,53.57
2019-05-26T19:32:39.693Z,54.21
2019-05-26T19:35:07.355Z,54.51
2019-05-26T19:37:35.018Z,55.44
2019-05-26T19:40:02.656Z,54.84
2019-05-26T19:42:30.312Z,54.67
2019-05-26T19:44:57.957Z,55.93
2019-05-26T19:47:25.604Z,55.43
2019-05-26T19:49:53.401Z,54.23
2019-05-26T19:52:21.168Z,54.36
2019-05-26T19:54:48.886Z,56.21
2019-05-26T19:57:16.533Z,55.48
2019-05-26T19:59:44.267Z,55.93
2019-05-26T20:02:18.257Z,56.05
2019-05-26T20:04:41.376Z,56.07
2019-05-26T20:07:09.103Z,55.65
2019-05-26T20:09:36.747Z,55.23
2019-05-26T20:12:04.599Z,56.12
2019-05-26T20:14:32.251Z,56.06
2019-05-26T20:16:59.897Z,56.16
2019-05-26T20:19:27.575Z,56.54
2019-05-26T20:21:55.359Z,56.56
2019-05-26T20:24:23.217Z,54.93
2019-05-26T20:26:50.864Z,55.26
2019-05-26T20:29:18.522Z,54.54
2019-05-26T20:31:46.179Z,56.76
2019-05-26T20:34:13.835Z,55.12
2019-05-26T20:36:41.493Z,55.72
2019-05-26T20:39:09.151Z,56.32
2019-05-26T20:41:36.815Z,57.13
2019-05-26T20:44:04.551Z,57.05
2019-05-26T21:01:07.780Z,58.79
2019-05-26T21:03:35.429Z,59.30
2019-05-26T21:06:03.209Z,58.55
2019-05-26T21:08:31.035Z,59.32
2019-05-26T21:10:58.695Z,58.10
2019-05-26T21:13:26.432Z,57.84
2019-05-26T21:15:54.076Z,58.75
2019-05-26T21:18:21.738Z,57.88
2019-05-26T21:20:49.377Z,57.29
2019-05-26T21:23:17.226Z,57.54
2019-05-26T21:25:44.869Z,57.40
2019-05-26T21:28:12.700Z,57.61
2019-05-26T21:30:40.368Z,57.51
2019-05-26T21:33:08.028Z,58.76
2019-05-26T21:35:35.667Z,58.39
2019-05-26T21:38:03.340Z,59.86
2019-05-26T21:40:31.158Z,59.84
2019-05-26T21:42:58.799Z,59.79
2019-05-26T21:45:26.469Z,59.02
2019-05-26T21:47:54.335Z,59.57
2019-05-26T21:50:21.984Z,60.50
2019-05-26T21:52:49.640Z,61.00
2019-05-26T21:55:17.331Z,62.42
2019-05-26T21:57:45.045Z,61.51
2019-05-26T22:00:14.399Z,61.01
2019-05-26T22:02:42.055Z,60.83
2019-05-26T22:05:09.895Z,62.00
2019-05-26T22:07:37.617Z,62.54
2019-05-26T22:10:05.332Z,63.90
2019-05-26T22:12:33.255Z,63.24
2019-05-26T22:15:00.968Z,62.75
2019-05-26T22:17:28.801Z,63.09
2019-05-26T22:19:56.450Z,62.62
2019-05-26T22:22:24.109Z,62.43
2019-05-26T22:24:51.752Z,62.85
2019-05-26T22:27:19.399Z,62.75
2019-05-26T22:29:47.238Z,62.38
2019-05-26T22:32:14.893Z,62.70
2019-05-26T22:34:42.531Z,62.55
2019-05-26T22:37:10.421Z,63.38
2019-05-26T22:39:38.079Z,62.17
2019-05-26T22:42:05.758Z,61.82
2019-05-26T22:44:33.480Z,61.81
2019-05-26T22:47:01.134Z,61.32
2019-05-26T22:49:28.773Z,62.54
2019-05-26T22:51:56.689Z,63.85
2019-05-26T22:54:24.375Z,63.87
2019-05-26T22:56:52.039Z,65.02
2019-05-26T22:59:19.696Z,64.51
2019-05-26T23:01:47.352Z,63.69
2019-05-26T23:04:15.020Z,62.87
2019-05-26T23:06:42.673Z,65.14
2019-05-26T23:09:10.331Z,64.36
2019-05-26T23:11:38.015Z,64.26
2019-05-26T23:14:05.952Z,64.15
2019-05-26T23:16:33.689Z,63.56
2019-05-26T23:19:01.320Z,63.84
2019-05-26T23:21:29.139Z,64.02
2019-05-26T23:23:56.825Z,64.88
2019-05-26T23:26:24.721Z,65.72
2019-05-26T23:28:52.475Z,65.94
2019-05-26T23:31:20.179Z,65.11
2019-05-26T23:33:48.185Z,64.79
2019-05-26T23:36:15.839Z,65.69
2019-05-26T23:38:43.489Z,65.70
2019-05-26T23:41:11.335Z,66.79
2019-05-26T23:43:39.015Z,66.39
2019-05-26T23:46:06.660Z,66.28
2019-05-26T23:48:34.445Z,66.43
2019-05-26T23:51:02.164Z,66.21
2019-05-26T23:53:29.890Z,66.25
2019-05-26T23:55:57.944Z,66.85
2019-05-26T23:58:25.688Z,65.31
